الكل
Nhill Airport (Nhill, Victoria) YNHL حالة الطقس
|
Nhill, Victoria (YNHL)
سماء صافية
رياح خفيفة |
|
12 °C |
There is no TAF data available at YNHL or any nearby airports.
محفوظات أحدث تقرير روتيني عن حالة الطقس من أجل الطيران (الميتار )YNHL
| Date | Time (AEST) | Flight Rules | Wind Dir. | Speed | Type | Height AGL (ft) | Visibility | Temp (°C) | Temp (°F) | Dew Point (°C) | Dew Point (°F) | Rel. Humid. | Pressure | Density Altitude | Remarks |
|---|---|---|---|---|---|---|---|---|---|---|---|---|---|---|---|
| 09-ماي | 04:00 | n/a | 230° | 7 kt | Missing | 12° | 53° | 12° | 53° | 100% | 1027 mb | -313 ft | |||
| 09-ماي | 03:00 | n/a | 250° | 7 kt | Missing | 12° | 53° | 11° | 51° | 94% | 1027 mb | -313 ft | |||
| 09-ماي | 02:00 | n/a | 250° | 7 kt | Missing | 12° | 53° | 12° | 53° | 100% | 1027 mb | -313 ft | |||
| 09-ماي | 01:00 | n/a | 240° | 6 kt | Missing | 12° | 53° | 12° | 53° | 100% | 1027 mb | -313 ft | |||
| 09-ماي | 00:00 | n/a | 240° | 8 kt | Missing | 12° | 53° | 11° | 51° | 94% | 1027 mb | -313 ft | |||
| 08-ماي | 23:00 | n/a | 230° | 7 kt | Missing | 12° | 53° | 12° | 53° | 100% | 1028 mb | -343 ft | |||
| 08-ماي | 22:00 | n/a | 220° | 10 kt | Missing | 12° | 53° | 12° | 53° | 100% | 1028 mb | -343 ft | |||
| 08-ماي | 21:00 | n/a | 250° | 7 kt | Missing | 12° | 53° | 12° | 53° | 100% | 1028 mb | -343 ft | |||
| 08-ماي | 20:00 | n/a | 240° | 7 kt | Missing | 12° | 53° | 11° | 51° | 94% | 1027 mb | -313 ft | |||
| 08-ماي | 19:00 | n/a | 250° | 9 kt | Missing | 12° | 53° | 11° | 51° | 94% | 1027 mb | -313 ft | |||
| 08-ماي | 18:00 | n/a | 240° | 11 kt | Missing | 14° | 57° | 11° | 51° | 82% | 1026 mb | -44 ft | |||
| 08-ماي | 17:00 | n/a | 250° | 12 kt | Missing | 15° | 59° | 11° | 51° | 77% | 1026 mb | 76 ft | |||
| 08-ماي | 16:00 | n/a | 230° | 10 kt | Missing | 14° | 57° | 12° | 53° | 88% | 1026 mb | -44 ft | |||
| 08-ماي | 15:00 | n/a | 230° | 13 kt | Missing | 15° | 59° | 11° | 51° | 77% | 1026 mb | 76 ft | |||
| 08-ماي | 14:00 | n/a | 220° | 13 kt | Missing | 15° | 59° | 10° | 50° | 72% | 1026 mb | 76 ft | |||
| 08-ماي | 13:00 | n/a | 230° | 18 kt | Missing | 15° | 59° | 9° | 48° | 67% | 1026 mb | 76 ft | |||
| 08-ماي | 12:00 | n/a | 250° | 17 kt | Missing | 15° | 59° | 10° | 50° | 72% | 1027 mb | 47 ft | |||
| 08-ماي | 11:00 | n/a | 230° | 17 kt | Missing | 14° | 57° | 10° | 50° | 77% | 1027 mb | -73 ft | |||
| 08-ماي | 10:00 | n/a | 230° | 15 kt | Missing | 13° | 55° | 10° | 50° | 82% | 1027 mb | -193 ft | |||
| 08-ماي | 09:00 | n/a | 230° | 13 kt | Missing | 13° | 55° | 11° | 51° | 88% | 1027 mb | -193 ft | |||
| 08-ماي | 08:00 | n/a | 240° | 15 kt | Missing | 12° | 53° | 11° | 51° | 94% | 1026 mb | -284 ft | |||
| 08-ماي | 07:00 | n/a | 250° | 15 kt | Missing | 12° | 53° | 11° | 51° | 94% | 1025 mb | -254 ft | |||
| 08-ماي | 06:00 | n/a | 250° | 14 kt | Missing | 11° | 51° | 10° | 50° | 94% | 1025 mb | -374 ft | |||
| 08-ماي | 05:00 | n/a | 270° | 15 kt | Missing | 12° | 53° | 10° | 50° | 88% | 1025 mb | -254 ft |
تسجيل الدخول
| مُتصفحك غير مُدعَّم. قم بترقية متصفحك |
